sensor_id;sensor_type;location;lat;lon;timestamp;P1;durP1;ratioP1;P2;durP2;ratioP2
70169;SDS011;57543;45.442;9.212;2023-06-22T00:02:27;14.60;;;6.85;;
70169;SDS011;57543;45.442;9.212;2023-06-22T00:05:30;13.93;;;7.82;;
70169;SDS011;57543;45.442;9.212;2023-06-22T00:08:34;13.07;;;6.70;;
70169;SDS011;57543;45.442;9.212;2023-06-22T00:11:37;12.48;;;6.80;;
70169;SDS011;57543;45.442;9.212;2023-06-22T00:14:41;10.85;;;6.78;;
70169;SDS011;57543;45.442;9.212;2023-06-22T00:17:45;11.93;;;6.90;;
70169;SDS011;57543;45.442;9.212;2023-06-22T00:20:48;14.45;;;7.40;;
70169;SDS011;57543;45.442;9.212;2023-06-22T00:23:52;12.60;;;7.20;;
70169;SDS011;57543;45.442;9.212;2023-06-22T00:26:56;10.88;;;6.68;;
70169;SDS011;57543;45.442;9.212;2023-06-22T00:29:59;13.43;;;7.60;;
70169;SDS011;57543;45.442;9.212;2023-06-22T00:33:05;9.53;;;6.27;;
70169;SDS011;57543;45.442;9.212;2023-06-22T00:36:10;9.25;;;6.00;;
70169;SDS011;57543;45.442;9.212;2023-06-22T00:39:16;11.60;;;6.68;;
70169;SDS011;57543;45.442;9.212;2023-06-22T00:42:20;11.13;;;6.28;;
70169;SDS011;57543;45.442;9.212;2023-06-22T00:45:24;11.95;;;6.43;;
70169;SDS011;57543;45.442;9.212;2023-06-22T00:48:28;11.27;;;6.57;;
70169;SDS011;57543;45.442;9.212;2023-06-22T00:51:32;11.50;;;6.50;;
70169;SDS011;57543;45.442;9.212;2023-06-22T00:54:36;12.30;;;6.97;;
70169;SDS011;57543;45.442;9.212;2023-06-22T00:57:40;13.25;;;6.43;;
70169;SDS011;57543;45.442;9.212;2023-06-22T01:00:44;11.63;;;6.88;;
70169;SDS011;57543;45.442;9.212;2023-06-22T01:03:48;12.97;;;6.80;;
70169;SDS011;57543;45.442;9.212;2023-06-22T01:06:59;12.10;;;6.50;;
70169;SDS011;57543;45.442;9.212;2023-06-22T01:13:48;13.43;;;6.50;;
70169;SDS011;57543;45.442;9.212;2023-06-22T01:17:03;13.88;;;6.90;;
70169;SDS011;57543;45.442;9.212;2023-06-22T01:20:10;9.97;;;6.30;;
70169;SDS011;57543;45.442;9.212;2023-06-22T01:26:56;10.27;;;6.18;;
70169;SDS011;57543;45.442;9.212;2023-06-22T01:30:07;11.30;;;6.40;;
70169;SDS011;57543;45.442;9.212;2023-06-22T01:33:13;12.40;;;6.57;;
70169;SDS011;57543;45.442;9.212;2023-06-22T01:36:18;10.80;;;6.50;;
70169;SDS011;57543;45.442;9.212;2023-06-22T01:39:24;11.52;;;6.63;;
70169;SDS011;57543;45.442;9.212;2023-06-22T01:42:30;10.52;;;6.78;;
70169;SDS011;57543;45.442;9.212;2023-06-22T01:45:34;9.25;;;6.15;;
70169;SDS011;57543;45.442;9.212;2023-06-22T01:48:38;11.52;;;6.53;;
70169;SDS011;57543;45.442;9.212;2023-06-22T01:51:42;11.77;;;7.10;;
70169;SDS011;57543;45.442;9.212;2023-06-22T01:54:45;11.52;;;7.07;;
70169;SDS011;57543;45.442;9.212;2023-06-22T01:57:49;11.80;;;8.05;;
70169;SDS011;57543;45.442;9.212;2023-06-22T02:00:55;12.93;;;7.57;;
70169;SDS011;57543;45.442;9.212;2023-06-22T02:04:03;13.82;;;7.45;;
70169;SDS011;57543;45.442;9.212;2023-06-22T02:07:15;12.77;;;7.70;;
70169;SDS011;57543;45.442;9.212;2023-06-22T02:10:22;13.38;;;7.75;;
70169;SDS011;57543;45.442;9.212;2023-06-22T02:13:27;15.30;;;8.25;;
70169;SDS011;57543;45.442;9.212;2023-06-22T02:16:31;15.77;;;7.53;;
70169;SDS011;57543;45.442;9.212;2023-06-22T02:19:40;13.65;;;7.50;;
70169;SDS011;57543;45.442;9.212;2023-06-22T02:22:44;12.87;;;7.93;;
70169;SDS011;57543;45.442;9.212;2023-06-22T02:25:50;15.30;;;7.95;;
70169;SDS011;57543;45.442;9.212;2023-06-22T02:28:53;12.50;;;7.78;;
70169;SDS011;57543;45.442;9.212;2023-06-22T02:32:01;13.20;;;8.00;;
70169;SDS011;57543;45.442;9.212;2023-06-22T02:35:05;12.45;;;7.65;;
70169;SDS011;57543;45.442;9.212;2023-06-22T02:38:09;15.57;;;8.23;;
70169;SDS011;57543;45.442;9.212;2023-06-22T02:41:14;16.48;;;8.30;;
70169;SDS011;57543;45.442;9.212;2023-06-22T02:44:21;12.85;;;7.70;;
70169;SDS011;57543;45.442;9.212;2023-06-22T02:47:25;16.60;;;8.32;;
70169;SDS011;57543;45.442;9.212;2023-06-22T02:50:29;13.82;;;8.00;;
70169;SDS011;57543;45.442;9.212;2023-06-22T02:53:33;15.27;;;8.03;;
70169;SDS011;57543;45.442;9.212;2023-06-22T02:56:37;13.65;;;8.05;;
70169;SDS011;57543;45.442;9.212;2023-06-22T02:59:41;16.52;;;8.48;;
70169;SDS011;57543;45.442;9.212;2023-06-22T03:02:47;13.23;;;8.10;;
70169;SDS011;57543;45.442;9.212;2023-06-22T03:05:52;14.57;;;7.97;;
70169;SDS011;57543;45.442;9.212;2023-06-22T03:08:58;14.27;;;8.00;;
70169;SDS011;57543;45.442;9.212;2023-06-22T03:12:06;14.93;;;8.25;;
70169;SDS011;57543;45.442;9.212;2023-06-22T03:15:20;14.60;;;8.43;;
70169;SDS011;57543;45.442;9.212;2023-06-22T03:18:24;14.63;;;7.93;;
70169;SDS011;57543;45.442;9.212;2023-06-22T03:21:28;13.05;;;8.60;;
70169;SDS011;57543;45.442;9.212;2023-06-22T03:24:32;15.17;;;8.20;;
70169;SDS011;57543;45.442;9.212;2023-06-22T03:27:37;13.90;;;7.78;;
70169;SDS011;57543;45.442;9.212;2023-06-22T03:30:44;14.13;;;8.60;;
70169;SDS011;57543;45.442;9.212;2023-06-22T03:33:47;12.35;;;8.38;;
70169;SDS011;57543;45.442;9.212;2023-06-22T03:36:53;11.35;;;8.05;;
70169;SDS011;57543;45.442;9.212;2023-06-22T03:39:56;12.30;;;7.60;;
70169;SDS011;57543;45.442;9.212;2023-06-22T03:43:00;12.32;;;8.13;;
70169;SDS011;57543;45.442;9.212;2023-06-22T03:46:06;12.32;;;8.23;;
70169;SDS011;57543;45.442;9.212;2023-06-22T03:49:10;15.23;;;8.18;;
70169;SDS011;57543;45.442;9.212;2023-06-22T03:52:14;12.20;;;8.25;;
70169;SDS011;57543;45.442;9.212;2023-06-22T03:55:17;11.70;;;8.00;;
70169;SDS011;57543;45.442;9.212;2023-06-22T03:58:22;16.95;;;8.88;;
70169;SDS011;57543;45.442;9.212;2023-06-22T04:01:26;15.48;;;8.52;;
70169;SDS011;57543;45.442;9.212;2023-06-22T04:04:29;13.68;;;8.55;;
70169;SDS011;57543;45.442;9.212;2023-06-22T04:07:33;14.10;;;8.38;;
70169;SDS011;57543;45.442;9.212;2023-06-22T04:10:37;16.57;;;9.53;;
70169;SDS011;57543;45.442;9.212;2023-06-22T04:13:40;13.07;;;8.60;;
70169;SDS011;57543;45.442;9.212;2023-06-22T04:16:44;13.75;;;8.68;;
70169;SDS011;57543;45.442;9.212;2023-06-22T04:19:48;13.73;;;8.30;;
70169;SDS011;57543;45.442;9.212;2023-06-22T04:22:52;16.98;;;8.20;;
70169;SDS011;57543;45.442;9.212;2023-06-22T04:25:59;12.83;;;8.37;;
70169;SDS011;57543;45.442;9.212;2023-06-22T04:29:03;17.30;;;8.70;;
70169;SDS011;57543;45.442;9.212;2023-06-22T04:32:09;13.80;;;8.80;;
70169;SDS011;57543;45.442;9.212;2023-06-22T04:35:15;15.93;;;8.65;;
70169;SDS011;57543;45.442;9.212;2023-06-22T04:38:19;15.50;;;9.70;;
70169;SDS011;57543;45.442;9.212;2023-06-22T04:41:24;16.73;;;9.27;;
70169;SDS011;57543;45.442;9.212;2023-06-22T04:44:29;15.18;;;8.88;;
70169;SDS011;57543;45.442;9.212;2023-06-22T04:47:33;15.20;;;9.18;;
70169;SDS011;57543;45.442;9.212;2023-06-22T04:50:36;12.93;;;8.88;;
70169;SDS011;57543;45.442;9.212;2023-06-22T04:53:42;16.63;;;9.27;;
70169;SDS011;57543;45.442;9.212;2023-06-22T04:56:45;16.50;;;9.10;;
70169;SDS011;57543;45.442;9.212;2023-06-22T04:59:49;19.40;;;10.00;;
70169;SDS011;57543;45.442;9.212;2023-06-22T05:02:53;15.75;;;9.30;;
70169;SDS011;57543;45.442;9.212;2023-06-22T05:06:00;15.80;;;9.13;;
70169;SDS011;57543;45.442;9.212;2023-06-22T05:09:06;15.57;;;8.75;;
70169;SDS011;57543;45.442;9.212;2023-06-22T05:12:09;14.03;;;8.30;;
70169;SDS011;57543;45.442;9.212;2023-06-22T05:15:13;15.50;;;9.50;;
70169;SDS011;57543;45.442;9.212;2023-06-22T05:18:17;12.98;;;8.30;;
70169;SDS011;57543;45.442;9.212;2023-06-22T05:21:24;16.42;;;9.00;;
70169;SDS011;57543;45.442;9.212;2023-06-22T05:24:29;16.23;;;8.48;;
70169;SDS011;57543;45.442;9.212;2023-06-22T05:27:32;18.37;;;9.27;;
70169;SDS011;57543;45.442;9.212;2023-06-22T05:30:37;16.70;;;9.27;;
70169;SDS011;57543;45.442;9.212;2023-06-22T05:33:41;13.98;;;8.60;;
70169;SDS011;57543;45.442;9.212;2023-06-22T05:36:48;14.30;;;8.05;;
70169;SDS011;57543;45.442;9.212;2023-06-22T05:39:51;15.75;;;8.57;;
70169;SDS011;57543;45.442;9.212;2023-06-22T05:42:55;13.20;;;8.30;;
70169;SDS011;57543;45.442;9.212;2023-06-22T05:46:02;16.70;;;9.27;;
70169;SDS011;57543;45.442;9.212;2023-06-22T05:49:07;22.85;;;12.32;;
70169;SDS011;57543;45.442;9.212;2023-06-22T05:52:11;19.52;;;10.70;;
70169;SDS011;57543;45.442;9.212;2023-06-22T05:55:14;24.38;;;12.98;;
70169;SDS011;57543;45.442;9.212;2023-06-22T05:58:18;23.00;;;12.23;;
70169;SDS011;57543;45.442;9.212;2023-06-22T06:01:22;18.45;;;12.95;;
70169;SDS011;57543;45.442;9.212;2023-06-22T06:04:26;24.45;;;14.43;;
70169;SDS011;57543;45.442;9.212;2023-06-22T06:07:29;23.30;;;14.75;;
70169;SDS011;57543;45.442;9.212;2023-06-22T06:10:33;22.90;;;14.25;;
70169;SDS011;57543;45.442;9.212;2023-06-22T06:13:37;27.47;;;14.90;;
70169;SDS011;57543;45.442;9.212;2023-06-22T06:16:41;17.60;;;11.43;;
70169;SDS011;57543;45.442;9.212;2023-06-22T06:19:44;29.27;;;13.95;;
70169;SDS011;57543;45.442;9.212;2023-06-22T06:22:47;23.75;;;13.77;;
70169;SDS011;57543;45.442;9.212;2023-06-22T06:25:52;22.67;;;14.25;;
70169;SDS011;57543;45.442;9.212;2023-06-22T06:28:56;20.07;;;13.83;;
70169;SDS011;57543;45.442;9.212;2023-06-22T06:32:00;25.33;;;13.65;;
70169;SDS011;57543;45.442;9.212;2023-06-22T06:35:07;22.60;;;14.18;;
70169;SDS011;57543;45.442;9.212;2023-06-22T06:38:14;27.10;;;14.10;;
70169;SDS011;57543;45.442;9.212;2023-06-22T06:41:18;22.60;;;14.75;;
70169;SDS011;57543;45.442;9.212;2023-06-22T06:44:22;24.10;;;13.27;;
70169;SDS011;57543;45.442;9.212;2023-06-22T06:47:26;27.67;;;15.32;;
70169;SDS011;57543;45.442;9.212;2023-06-22T06:50:30;24.63;;;14.82;;
70169;SDS011;57543;45.442;9.212;2023-06-22T06:53:34;26.30;;;15.20;;
70169;SDS011;57543;45.442;9.212;2023-06-22T06:56:38;22.08;;;13.60;;
70169;SDS011;57543;45.442;9.212;2023-06-22T06:59:42;22.00;;;11.80;;
70169;SDS011;57543;45.442;9.212;2023-06-22T07:02:45;22.13;;;13.40;;
70169;SDS011;57543;45.442;9.212;2023-06-22T07:05:51;23.17;;;14.13;;
70169;SDS011;57543;45.442;9.212;2023-06-22T07:08:55;23.05;;;13.63;;
70169;SDS011;57543;45.442;9.212;2023-06-22T07:11:58;20.15;;;11.80;;
70169;SDS011;57543;45.442;9.212;2023-06-22T07:18:13;16.80;;;10.52;;
70169;SDS011;57543;45.442;9.212;2023-06-22T07:21:16;19.15;;;9.60;;
70169;SDS011;57543;45.442;9.212;2023-06-22T07:24:20;18.17;;;8.63;;
70169;SDS011;57543;45.442;9.212;2023-06-22T07:27:24;14.02;;;8.43;;
70169;SDS011;57543;45.442;9.212;2023-06-22T07:30:29;15.23;;;8.67;;
70169;SDS011;57543;45.442;9.212;2023-06-22T07:33:33;17.90;;;9.52;;
70169;SDS011;57543;45.442;9.212;2023-06-22T07:36:37;14.10;;;8.50;;
70169;SDS011;57543;45.442;9.212;2023-06-22T07:39:41;19.00;;;9.35;;
70169;SDS011;57543;45.442;9.212;2023-06-22T07:42:45;17.35;;;10.10;;
70169;SDS011;57543;45.442;9.212;2023-06-22T07:45:51;18.40;;;9.67;;
70169;SDS011;57543;45.442;9.212;2023-06-22T07:48:58;17.67;;;9.73;;
70169;SDS011;57543;45.442;9.212;2023-06-22T07:52:02;17.52;;;9.23;;
70169;SDS011;57543;45.442;9.212;2023-06-22T07:55:07;12.68;;;7.60;;
70169;SDS011;57543;45.442;9.212;2023-06-22T07:58:12;21.00;;;9.25;;
70169;SDS011;57543;45.442;9.212;2023-06-22T08:01:17;15.77;;;8.50;;
70169;SDS011;57543;45.442;9.212;2023-06-22T08:04:22;19.63;;;9.07;;
70169;SDS011;57543;45.442;9.212;2023-06-22T08:07:26;19.15;;;8.65;;
70169;SDS011;57543;45.442;9.212;2023-06-22T08:10:30;16.83;;;8.35;;
70169;SDS011;57543;45.442;9.212;2023-06-22T08:13:37;17.25;;;9.25;;
70169;SDS011;57543;45.442;9.212;2023-06-22T08:16:41;17.83;;;8.90;;
70169;SDS011;57543;45.442;9.212;2023-06-22T08:19:45;15.70;;;8.48;;
70169;SDS011;57543;45.442;9.212;2023-06-22T08:22:48;16.48;;;9.48;;
70169;SDS011;57543;45.442;9.212;2023-06-22T08:25:51;18.05;;;9.55;;
70169;SDS011;57543;45.442;9.212;2023-06-22T08:28:55;13.68;;;8.80;;
70169;SDS011;57543;45.442;9.212;2023-06-22T08:31:58;14.60;;;8.80;;
70169;SDS011;57543;45.442;9.212;2023-06-22T08:35:05;19.40;;;8.43;;
70169;SDS011;57543;45.442;9.212;2023-06-22T08:38:11;22.23;;;9.35;;
70169;SDS011;57543;45.442;9.212;2023-06-22T08:41:17;17.38;;;8.70;;
70169;SDS011;57543;45.442;9.212;2023-06-22T08:44:21;14.75;;;7.78;;
70169;SDS011;57543;45.442;9.212;2023-06-22T08:47:24;16.77;;;8.40;;
70169;SDS011;57543;45.442;9.212;2023-06-22T08:50:28;16.33;;;8.88;;
70169;SDS011;57543;45.442;9.212;2023-06-22T08:53:31;15.48;;;8.50;;
70169;SDS011;57543;45.442;9.212;2023-06-22T08:56:34;20.80;;;9.07;;
70169;SDS011;57543;45.442;9.212;2023-06-22T08:59:38;21.90;;;9.55;;
70169;SDS011;57543;45.442;9.212;2023-06-22T09:02:44;18.85;;;9.43;;
70169;SDS011;57543;45.442;9.212;2023-06-22T09:05:50;21.38;;;9.73;;
70169;SDS011;57543;45.442;9.212;2023-06-22T09:08:53;18.02;;;9.80;;
70169;SDS011;57543;45.442;9.212;2023-06-22T09:11:56;14.73;;;9.50;;
70169;SDS011;57543;45.442;9.212;2023-06-22T09:15:00;16.55;;;8.85;;
70169;SDS011;57543;45.442;9.212;2023-06-22T09:18:04;19.67;;;10.65;;
70169;SDS011;57543;45.442;9.212;2023-06-22T09:21:15;22.53;;;11.37;;
70169;SDS011;57543;45.442;9.212;2023-06-22T09:24:19;18.75;;;11.48;;
70169;SDS011;57543;45.442;9.212;2023-06-22T09:27:23;19.65;;;11.02;;
70169;SDS011;57543;45.442;9.212;2023-06-22T09:30:27;19.17;;;10.77;;
70169;SDS011;57543;45.442;9.212;2023-06-22T09:33:30;23.63;;;12.07;;
70169;SDS011;57543;45.442;9.212;2023-06-22T09:36:34;21.20;;;10.50;;
70169;SDS011;57543;45.442;9.212;2023-06-22T09:39:38;16.27;;;9.05;;
70169;SDS011;57543;45.442;9.212;2023-06-22T09:42:42;15.07;;;9.68;;
70169;SDS011;57543;45.442;9.212;2023-06-22T09:45:46;13.73;;;8.30;;
70169;SDS011;57543;45.442;9.212;2023-06-22T09:48:49;20.45;;;10.18;;
70169;SDS011;57543;45.442;9.212;2023-06-22T09:51:52;19.60;;;9.50;;
70169;SDS011;57543;45.442;9.212;2023-06-22T09:54:56;17.73;;;10.00;;
70169;SDS011;57543;45.442;9.212;2023-06-22T09:57:59;15.82;;;9.07;;
70169;SDS011;57543;45.442;9.212;2023-06-22T10:01:02;16.60;;;9.30;;
70169;SDS011;57543;45.442;9.212;2023-06-22T10:04:06;17.17;;;8.98;;
70169;SDS011;57543;45.442;9.212;2023-06-22T10:07:09;19.27;;;9.87;;
70169;SDS011;57543;45.442;9.212;2023-06-22T10:10:13;14.68;;;9.70;;
70169;SDS011;57543;45.442;9.212;2023-06-22T10:13:17;20.10;;;9.68;;
70169;SDS011;57543;45.442;9.212;2023-06-22T10:16:23;14.88;;;8.75;;
70169;SDS011;57543;45.442;9.212;2023-06-22T10:19:32;19.27;;;9.35;;
70169;SDS011;57543;45.442;9.212;2023-06-22T10:22:37;14.13;;;9.13;;
70169;SDS011;57543;45.442;9.212;2023-06-22T10:25:42;16.92;;;9.38;;
70169;SDS011;57543;45.442;9.212;2023-06-22T10:28:46;15.32;;;9.48;;
70169;SDS011;57543;45.442;9.212;2023-06-22T10:31:49;16.70;;;9.02;;
70169;SDS011;57543;45.442;9.212;2023-06-22T10:34:53;17.25;;;9.68;;
70169;SDS011;57543;45.442;9.212;2023-06-22T10:37:57;14.20;;;8.77;;
70169;SDS011;57543;45.442;9.212;2023-06-22T10:41:00;14.10;;;8.15;;
70169;SDS011;57543;45.442;9.212;2023-06-22T10:44:04;15.75;;;9.02;;
70169;SDS011;57543;45.442;9.212;2023-06-22T10:47:09;14.63;;;9.18;;
70169;SDS011;57543;45.442;9.212;2023-06-22T10:50:15;18.38;;;9.80;;
70169;SDS011;57543;45.442;9.212;2023-06-22T10:53:19;16.83;;;9.10;;
70169;SDS011;57543;45.442;9.212;2023-06-22T10:56:23;16.85;;;8.93;;
70169;SDS011;57543;45.442;9.212;2023-06-22T10:59:26;15.65;;;8.20;;
70169;SDS011;57543;45.442;9.212;2023-06-22T11:02:31;11.48;;;8.23;;
70169;SDS011;57543;45.442;9.212;2023-06-22T11:05:34;14.60;;;8.45;;
70169;SDS011;57543;45.442;9.212;2023-06-22T11:08:38;13.20;;;7.80;;
70169;SDS011;57543;45.442;9.212;2023-06-22T11:11:42;10.73;;;7.15;;
70169;SDS011;57543;45.442;9.212;2023-06-22T11:14:46;14.18;;;7.60;;
70169;SDS011;57543;45.442;9.212;2023-06-22T11:17:49;12.93;;;8.15;;
70169;SDS011;57543;45.442;9.212;2023-06-22T11:20:53;11.32;;;7.63;;
70169;SDS011;57543;45.442;9.212;2023-06-22T11:23:57;15.30;;;7.60;;
70169;SDS011;57543;45.442;9.212;2023-06-22T11:27:01;10.98;;;7.53;;
70169;SDS011;57543;45.442;9.212;2023-06-22T11:30:05;11.45;;;7.80;;
70169;SDS011;57543;45.442;9.212;2023-06-22T11:33:09;12.90;;;7.40;;
70169;SDS011;57543;45.442;9.212;2023-06-22T11:36:12;14.40;;;8.32;;
70169;SDS011;57543;45.442;9.212;2023-06-22T11:39:16;13.33;;;8.60;;
70169;SDS011;57543;45.442;9.212;2023-06-22T11:42:20;14.75;;;9.20;;
70169;SDS011;57543;45.442;9.212;2023-06-22T11:45:24;14.27;;;9.23;;
70169;SDS011;57543;45.442;9.212;2023-06-22T11:48:27;16.33;;;9.35;;
70169;SDS011;57543;45.442;9.212;2023-06-22T11:51:31;16.63;;;9.52;;
70169;SDS011;57543;45.442;9.212;2023-06-22T11:54:34;18.03;;;9.40;;
70169;SDS011;57543;45.442;9.212;2023-06-22T11:57:38;23.48;;;10.00;;
70169;SDS011;57543;45.442;9.212;2023-06-22T12:00:56;17.48;;;8.65;;
70169;SDS011;57543;45.442;9.212;2023-06-22T12:04:00;13.90;;;7.93;;
70169;SDS011;57543;45.442;9.212;2023-06-22T12:07:03;17.42;;;8.95;;
70169;SDS011;57543;45.442;9.212;2023-06-22T12:10:08;14.20;;;8.93;;
70169;SDS011;57543;45.442;9.212;2023-06-22T12:13:11;15.05;;;9.43;;
70169;SDS011;57543;45.442;9.212;2023-06-22T12:16:16;12.80;;;8.70;;
70169;SDS011;57543;45.442;9.212;2023-06-22T12:19:19;15.63;;;8.80;;
70169;SDS011;57543;45.442;9.212;2023-06-22T12:22:23;15.13;;;8.35;;
70169;SDS011;57543;45.442;9.212;2023-06-22T12:25:27;16.17;;;8.97;;
70169;SDS011;57543;45.442;9.212;2023-06-22T12:28:30;16.45;;;9.00;;
70169;SDS011;57543;45.442;9.212;2023-06-22T12:31:34;14.18;;;8.48;;
70169;SDS011;57543;45.442;9.212;2023-06-22T12:34:38;14.48;;;8.73;;
70169;SDS011;57543;45.442;9.212;2023-06-22T12:37:42;12.45;;;8.55;;
70169;SDS011;57543;45.442;9.212;2023-06-22T12:40:46;11.87;;;7.63;;
70169;SDS011;57543;45.442;9.212;2023-06-22T12:43:50;14.95;;;8.25;;
70169;SDS011;57543;45.442;9.212;2023-06-22T12:46:53;13.93;;;8.50;;
70169;SDS011;57543;45.442;9.212;2023-06-22T12:49:59;14.50;;;8.68;;
70169;SDS011;57543;45.442;9.212;2023-06-22T12:53:03;15.52;;;8.65;;
70169;SDS011;57543;45.442;9.212;2023-06-22T12:56:09;14.73;;;8.83;;
70169;SDS011;57543;45.442;9.212;2023-06-22T12:59:33;11.73;;;8.00;;
70169;SDS011;57543;45.442;9.212;2023-06-22T13:02:38;15.00;;;8.77;;
70169;SDS011;57543;45.442;9.212;2023-06-22T13:05:42;14.25;;;9.40;;
70169;SDS011;57543;45.442;9.212;2023-06-22T13:08:45;15.77;;;8.40;;
70169;SDS011;57543;45.442;9.212;2023-06-22T13:11:49;14.57;;;8.83;;
70169;SDS011;57543;45.442;9.212;2023-06-22T13:14:53;13.75;;;8.05;;
70169;SDS011;57543;45.442;9.212;2023-06-22T13:17:57;14.20;;;8.77;;
70169;SDS011;57543;45.442;9.212;2023-06-22T13:21:00;12.38;;;7.93;;
70169;SDS011;57543;45.442;9.212;2023-06-22T13:24:03;15.98;;;8.60;;
70169;SDS011;57543;45.442;9.212;2023-06-22T13:27:09;12.30;;;8.13;;
70169;SDS011;57543;45.442;9.212;2023-06-22T13:30:12;19.58;;;9.65;;
70169;SDS011;57543;45.442;9.212;2023-06-22T13:33:16;19.48;;;10.40;;
70169;SDS011;57543;45.442;9.212;2023-06-22T13:36:20;15.50;;;9.57;;
70169;SDS011;57543;45.442;9.212;2023-06-22T13:39:24;13.13;;;9.27;;
70169;SDS011;57543;45.442;9.212;2023-06-22T13:42:28;14.23;;;8.47;;
70169;SDS011;57543;45.442;9.212;2023-06-22T13:45:32;18.30;;;9.30;;
70169;SDS011;57543;45.442;9.212;2023-06-22T13:48:35;14.02;;;8.82;;
70169;SDS011;57543;45.442;9.212;2023-06-22T13:51:39;16.20;;;9.32;;
70169;SDS011;57543;45.442;9.212;2023-06-22T13:54:43;18.13;;;9.73;;
70169;SDS011;57543;45.442;9.212;2023-06-22T13:57:46;15.20;;;9.40;;
70169;SDS011;57543;45.442;9.212;2023-06-22T14:00:50;14.35;;;8.95;;
70169;SDS011;57543;45.442;9.212;2023-06-22T14:03:53;14.45;;;8.23;;
70169;SDS011;57543;45.442;9.212;2023-06-22T14:06:57;14.15;;;9.00;;
70169;SDS011;57543;45.442;9.212;2023-06-22T14:10:01;13.85;;;8.68;;
70169;SDS011;57543;45.442;9.212;2023-06-22T14:13:04;11.83;;;7.77;;
70169;SDS011;57543;45.442;9.212;2023-06-22T14:16:09;13.93;;;8.70;;
70169;SDS011;57543;45.442;9.212;2023-06-22T14:19:13;14.88;;;9.05;;
70169;SDS011;57543;45.442;9.212;2023-06-22T14:22:16;22.23;;;9.65;;
70169;SDS011;57543;45.442;9.212;2023-06-22T14:25:20;17.45;;;9.63;;
70169;SDS011;57543;45.442;9.212;2023-06-22T14:28:24;16.07;;;9.77;;
70169;SDS011;57543;45.442;9.212;2023-06-22T14:31:28;17.73;;;10.75;;
70169;SDS011;57543;45.442;9.212;2023-06-22T14:34:32;17.38;;;9.35;;
70169;SDS011;57543;45.442;9.212;2023-06-22T14:37:39;18.35;;;9.27;;
70169;SDS011;57543;45.442;9.212;2023-06-22T14:40:42;18.52;;;9.02;;
70169;SDS011;57543;45.442;9.212;2023-06-22T14:43:47;14.00;;;8.60;;
70169;SDS011;57543;45.442;9.212;2023-06-22T14:46:51;15.30;;;8.27;;
70169;SDS011;57543;45.442;9.212;2023-06-22T14:49:56;14.82;;;8.02;;
70169;SDS011;57543;45.442;9.212;2023-06-22T14:53:00;15.88;;;8.73;;
70169;SDS011;57543;45.442;9.212;2023-06-22T14:56:04;16.42;;;8.18;;
70169;SDS011;57543;45.442;9.212;2023-06-22T14:59:09;16.63;;;8.27;;
70169;SDS011;57543;45.442;9.212;2023-06-22T15:02:13;13.60;;;7.85;;
70169;SDS011;57543;45.442;9.212;2023-06-22T15:05:17;10.55;;;7.15;;
70169;SDS011;57543;45.442;9.212;2023-06-22T15:08:21;12.90;;;7.38;;
70169;SDS011;57543;45.442;9.212;2023-06-22T15:11:24;11.25;;;6.85;;
70169;SDS011;57543;45.442;9.212;2023-06-22T15:14:28;13.97;;;6.67;;
70169;SDS011;57543;45.442;9.212;2023-06-22T15:17:33;10.88;;;6.38;;
70169;SDS011;57543;45.442;9.212;2023-06-22T15:20:37;12.82;;;6.60;;
70169;SDS011;57543;45.442;9.212;2023-06-22T15:23:40;14.88;;;6.72;;
70169;SDS011;57543;45.442;9.212;2023-06-22T15:26:44;13.75;;;7.22;;
70169;SDS011;57543;45.442;9.212;2023-06-22T15:29:48;11.40;;;7.03;;
70169;SDS011;57543;45.442;9.212;2023-06-22T15:32:52;11.80;;;6.97;;
70169;SDS011;57543;45.442;9.212;2023-06-22T15:35:55;10.32;;;7.25;;
70169;SDS011;57543;45.442;9.212;2023-06-22T15:38:59;15.00;;;7.25;;
70169;SDS011;57543;45.442;9.212;2023-06-22T15:42:02;14.80;;;7.18;;
70169;SDS011;57543;45.442;9.212;2023-06-22T15:45:06;13.33;;;6.70;;
70169;SDS011;57543;45.442;9.212;2023-06-22T15:48:10;11.77;;;6.53;;
70169;SDS011;57543;45.442;9.212;2023-06-22T15:51:13;11.20;;;5.85;;
70169;SDS011;57543;45.442;9.212;2023-06-22T15:54:17;9.95;;;6.20;;
70169;SDS011;57543;45.442;9.212;2023-06-22T15:57:21;13.07;;;6.32;;
70169;SDS011;57543;45.442;9.212;2023-06-22T16:00:26;11.63;;;6.90;;
70169;SDS011;57543;45.442;9.212;2023-06-22T16:03:29;13.95;;;6.65;;
70169;SDS011;57543;45.442;9.212;2023-06-22T16:06:33;13.32;;;7.07;;
70169;SDS011;57543;45.442;9.212;2023-06-22T16:09:37;12.38;;;6.90;;
70169;SDS011;57543;45.442;9.212;2023-06-22T16:12:41;12.90;;;7.40;;
70169;SDS011;57543;45.442;9.212;2023-06-22T16:15:45;13.77;;;6.97;;
70169;SDS011;57543;45.442;9.212;2023-06-22T16:18:48;10.35;;;6.60;;
70169;SDS011;57543;45.442;9.212;2023-06-22T16:21:52;13.45;;;6.43;;
70169;SDS011;57543;45.442;9.212;2023-06-22T16:24:55;11.23;;;6.88;;
70169;SDS011;57543;45.442;9.212;2023-06-22T16:28:00;11.75;;;7.10;;
70169;SDS011;57543;45.442;9.212;2023-06-22T16:31:05;11.37;;;6.73;;
70169;SDS011;57543;45.442;9.212;2023-06-22T16:34:09;10.57;;;6.95;;
70169;SDS011;57543;45.442;9.212;2023-06-22T16:37:13;12.20;;;6.93;;
70169;SDS011;57543;45.442;9.212;2023-06-22T16:40:16;14.70;;;6.95;;
70169;SDS011;57543;45.442;9.212;2023-06-22T16:43:23;12.57;;;6.82;;
70169;SDS011;57543;45.442;9.212;2023-06-22T16:46:27;13.60;;;6.73;;
70169;SDS011;57543;45.442;9.212;2023-06-22T16:49:31;10.60;;;7.00;;
70169;SDS011;57543;45.442;9.212;2023-06-22T16:52:35;13.02;;;7.05;;
70169;SDS011;57543;45.442;9.212;2023-06-22T16:55:40;15.00;;;6.72;;
70169;SDS011;57543;45.442;9.212;2023-06-22T16:58:45;14.23;;;6.63;;
70169;SDS011;57543;45.442;9.212;2023-06-22T17:01:53;9.37;;;6.80;;
70169;SDS011;57543;45.442;9.212;2023-06-22T17:04:58;12.25;;;6.68;;
70169;SDS011;57543;45.442;9.212;2023-06-22T17:08:02;15.57;;;6.80;;
70169;SDS011;57543;45.442;9.212;2023-06-22T17:11:07;13.65;;;7.05;;
70169;SDS011;57543;45.442;9.212;2023-06-22T17:14:11;10.63;;;7.50;;
70169;SDS011;57543;45.442;9.212;2023-06-22T17:17:15;13.13;;;7.10;;
70169;SDS011;57543;45.442;9.212;2023-06-22T17:20:20;12.13;;;7.38;;
70169;SDS011;57543;45.442;9.212;2023-06-22T17:23:24;12.50;;;7.10;;
70169;SDS011;57543;45.442;9.212;2023-06-22T17:26:30;13.77;;;6.90;;
70169;SDS011;57543;45.442;9.212;2023-06-22T17:29:35;11.10;;;7.03;;
70169;SDS011;57543;45.442;9.212;2023-06-22T17:32:39;14.13;;;6.60;;
70169;SDS011;57543;45.442;9.212;2023-06-22T17:35:46;10.52;;;6.90;;
70169;SDS011;57543;45.442;9.212;2023-06-22T17:38:51;13.85;;;7.38;;
70169;SDS011;57543;45.442;9.212;2023-06-22T17:42:01;10.27;;;7.43;;
70169;SDS011;57543;45.442;9.212;2023-06-22T17:45:22;12.05;;;7.45;;
70169;SDS011;57543;45.442;9.212;2023-06-22T17:48:29;14.87;;;7.53;;
70169;SDS011;57543;45.442;9.212;2023-06-22T17:51:34;13.68;;;7.10;;
70169;SDS011;57543;45.442;9.212;2023-06-22T17:54:39;12.45;;;7.10;;
70169;SDS011;57543;45.442;9.212;2023-06-22T17:57:43;14.75;;;6.95;;
70169;SDS011;57543;45.442;9.212;2023-06-22T18:00:52;10.48;;;7.10;;
70169;SDS011;57543;45.442;9.212;2023-06-22T18:03:56;16.63;;;8.53;;
70169;SDS011;57543;45.442;9.212;2023-06-22T18:07:01;14.80;;;7.53;;
70169;SDS011;57543;45.442;9.212;2023-06-22T18:10:06;15.95;;;7.35;;
70169;SDS011;57543;45.442;9.212;2023-06-22T18:13:11;13.10;;;7.55;;
70169;SDS011;57543;45.442;9.212;2023-06-22T18:16:17;12.63;;;7.65;;
70169;SDS011;57543;45.442;9.212;2023-06-22T18:19:21;13.70;;;8.13;;
70169;SDS011;57543;45.442;9.212;2023-06-22T18:22:27;14.27;;;7.10;;
70169;SDS011;57543;45.442;9.212;2023-06-22T18:25:32;16.95;;;7.43;;